Погода Глуздына неделю

Смоленская область, Россия

25 - 31 мая
  • 25мая
    Сегодня
    +7°
    +26°
    Ясно и безоблачно
    ВремяПогодаТемператураВлажностьДавлениеВетер, м/сВероятность осадков
    00:00Ясно и безоблачно+10°C51 %757 мм0.7 м/с2 %
    03:00Ясно и безоблачно+7°C62 %757 мм0.4 м/с2 %
    06:00Ясно и безоблачно+8°C65 %757 мм0.6 м/с2 %
    09:00Ясно и безоблачно+17°C55 %757 мм1.1 м/с2 %
    12:00Ясно и безоблачно+24°C41 %757 мм1.8 м/с2 %
    15:00Ясно и безоблачно+25°C37 %756 мм1.6 м/с2 %
    18:00Ясно и безоблачно+25°C39 %755 мм1.1 м/с2 %
    21:00Ясно и безоблачно+18°C62 %754 мм0.2 м/с2 %
  • 26мая
    Воскресенье
    +10°
    +26°
    Практически безоблачно
    ВремяПогодаТемператураВлажностьДавлениеВетер, м/сВероятность осадков
    00:00Ясно и безоблачно+11°C80 %754 мм0.3 м/с2 %
    03:00Ясно и безоблачно+8°C88 %754 мм0.2 м/с2 %
    06:00Ясно и безоблачно+10°C88 %755 мм0.0 м/с2 %
    09:00Ясно и безоблачно+20°C59 %755 мм0.3 м/с2 %
    12:00Ясно и безоблачно+26°C40 %755 мм1.4 м/с1 %
    15:00Практически безоблачно+26°C37 %754 мм1.3 м/с2 %
    18:00Практически безоблачно+27°C41 %754 мм1.3 м/с9 %
    21:00Практически безоблачно+19°C65 %754 мм0.2 м/с4 %
  • 27мая
    Понедельник
    +11°
    +27°
    Небольшая облачность
    ВремяПогодаТемператураВлажностьДавлениеВетер, м/сВероятность осадков
    00:00Ясно и безоблачно+13°C68 %754 мм0.1 м/с2 %
    03:00Ясно и безоблачно+11°C84 %754 мм0.3 м/с2 %
    06:00Ясно и безоблачно+12°C90 %755 мм0.2 м/с2 %
    09:00Ясно и безоблачно+20°C73 %755 мм0.8 м/с2 %
    12:00Практически безоблачно+25°C57 %755 мм1.6 м/с15 %
    15:00Небольшая облачность+25°C51 %754 мм1.4 м/с26 %
    18:00Небольшая облачность и лёгкий дождик+25°C55 %754 мм1.0 м/с39 %
    21:00Ясно и безоблачно+19°C73 %753 мм0.0 м/с7 %
  • 28мая
    Вторник
    +11°
    +28°
    Практически безоблачно
    ВремяПогодаТемператураВлажностьДавлениеВетер, м/сВероятность осадков
    00:00Ясно и безоблачно+13°C87 %753 мм0.1 м/с2 %
    03:00Ясно и безоблачно+10°C92 %753 мм0.1 м/с2 %
    06:00Ясно и безоблачно+12°C88 %753 мм0.1 м/с3 %
    09:00Ясно и безоблачно+21°C67 %753 мм0.5 м/с2 %
    12:00Практически безоблачно+25°C53 %753 мм1.0 м/с27 %
    15:00Практически безоблачно+24°C49 %752 мм0.9 м/с24 %
    18:00Практически безоблачно+25°C49 %751 мм1.0 м/с26 %
    21:00Практически безоблачно+19°C77 %751 мм0.4 м/с8 %
Мы используем cookies
Соглашаюсь